Time;durP1;ratioP1;P1;durP2;ratioP2;P2;SDS_P1;SDS_P2;PMS_P1;PMS_P2;Temp;Humidity;BMP_temperature;BMP_pressure;BME280_temperature;BME280_humidity;BME280_pressure;Samples;Min_cycle;Max_cycle;Signal;HPM_P1;HPM_P2
2023/05/05 00:02:09;;;;;;;;;;;;;;;11.71;85.68;95545.84;5095039;28;1013;-58
2023/05/05 00:04:35;;;;;;;;;;;;;;;11.70;85.84;95538.78;5094676;28;1089;-58
2023/05/05 00:07:01;;;;;;;;;;;;;;;11.58;86.75;95550.78;5094880;28;1035;-58
2023/05/05 00:09:27;;;;;;;;;;;;;;;11.49;87.07;95537.31;5094756;28;1036;-58
2023/05/05 00:11:53;;;;;;;;;;;;;;;11.25;88.59;95534.47;5094627;28;2007;-58
2023/05/05 00:14:19;;;;;;;;;;;;;;;11.07;89.52;95532.66;5094488;28;1056;-58
2023/05/05 00:16:45;;;;;;;;;;;;;;;11.13;88.89;95536.53;5094744;28;957;-58
2023/05/05 00:19:11;;;;;;;;;;;;;;;11.22;88.25;95537.47;5093449;28;1053;-58
2023/05/05 00:21:37;;;;;;;;;;;;;;;11.28;87.85;95528.81;5094647;28;1051;-58
2023/05/05 00:24:03;;;;;;;;;;;;;;;11.32;87.68;95538.19;5094344;28;1137;-58
2023/05/05 00:26:29;;;;;;;;;;;;;;;11.44;87.19;95536.09;5094149;28;1226;-58
2023/05/05 00:28:56;;;;;;;;;;;;;;;11.44;86.69;95533.41;5094279;28;1148;-58
2023/05/05 00:31:22;;;;;;;;;;;;;;;11.48;86.82;95543.69;5094371;28;1162;-58
2023/05/05 00:33:48;;;;;;;;;;;;;;;11.50;86.30;95541.69;5094183;28;1910;-58
2023/05/05 00:36:14;;;;;;;;;;;;;;;11.46;87.12;95543.00;5094215;28;1037;-58
2023/05/05 00:38:40;;;;;;;;;;;;;;;11.52;86.64;95544.22;5094139;28;1065;-58
2023/05/05 00:41:06;;;;;;;;;;;;;;;11.46;87.33;95543.00;5094219;28;1027;-58
2023/05/05 00:43:32;;;;;;;;;;;;;;;11.42;86.95;95547.00;5093988;28;1007;-58
2023/05/05 00:46:00;;;;;;;;;;;;;;;11.50;87.00;95547.03;5094243;28;1080;-58
2023/05/05 00:48:29;;;;;;;;;;;;;;;11.60;86.16;95540.75;5093917;28;1649;-58
2023/05/05 00:50:55;;;;;;;;;;;;;;;11.60;86.35;95540.75;5093958;28;1199;-58
2023/05/05 00:53:22;;;;;;;;;;;;;;;11.45;87.44;95541.31;5093879;28;1898;-58
2023/05/05 00:55:48;;;;;;;;;;;;;;;11.51;86.27;95540.69;5093905;28;1041;-58
2023/05/05 00:58:14;;;;;;;;;;;;;;;11.36;86.55;95536.88;5093791;28;992;-58
2023/05/05 01:00:40;;;;;;;;;;;;;;;11.39;86.21;95531.22;5093318;28;1056;-58
2023/05/05 01:03:06;;;;;;;;;;;;;;;11.37;86.68;95525.19;5094002;28;1012;-58
2023/05/05 01:05:50;;;;;;;;;;;;;;;11.41;85.94;95525.72;5093783;28;1027;-58
2023/05/05 01:08:16;;;;;;;;;;;;;;;11.37;86.40;95519.84;5093770;28;969;-58
2023/05/05 01:10:45;;;;;;;;;;;;;;;11.28;87.83;95520.78;5093667;28;1051;-58
2023/05/05 01:13:23;;;;;;;;;;;;;;;11.04;88.43;95516.06;5093844;28;1921;-58
2023/05/05 01:15:52;;;;;;;;;;;;;;;11.05;88.94;95521.28;5093795;28;1031;-58
2023/05/05 01:18:23;;;;;;;;;;;;;;;11.13;88.01;95523.16;5093643;28;1055;-58
2023/05/05 01:21:15;;;;;;;;;;;;;;;11.03;88.15;95519.75;5092475;28;946;-58
2023/05/05 01:23:41;;;;;;;;;;;;;;;11.07;87.94;95532.66;5082529;28;1148;-58
2023/05/05 01:26:14;;;;;;;;;;;;;;;10.99;88.90;95521.06;5093493;28;1210;-58
2023/05/05 01:28:47;;;;;;;;;;;;;;;11.00;88.79;95520.88;5093461;28;1045;-58
2023/05/05 01:31:31;;;;;;;;;;;;;;;11.09;88.55;95517.28;5093409;28;1228;-58
2023/05/05 01:34:00;;;;;;;;;;;;;;;11.16;87.91;95514.84;5093234;28;1985;-58
2023/05/05 01:36:48;;;;;;;;;;;;;;;11.14;87.71;95516.84;5093469;28;1057;-58
2023/05/05 01:39:15;;;;;;;;;;;;;;;11.16;87.20;95514.84;5092285;28;981;-58
2023/05/05 01:41:52;;;;;;;;;;;;;;;11.26;86.90;95509.38;5093488;28;1218;-58
2023/05/05 01:44:19;;;;;;;;;;;;;;;11.29;86.66;95511.75;5093250;28;969;-58
2023/05/05 01:46:46;;;;;;;;;;;;;;;11.30;86.81;95508.06;5093517;28;981;-58
2023/05/05 01:49:13;;;;;;;;;;;;;;;11.41;85.92;95513.16;5093179;28;1167;-58
2023/05/05 01:51:40;;;;;;;;;;;;;;;11.44;86.15;95510.19;5093358;28;1984;-59
2023/05/05 01:54:07;;;;;;;;;;;;;;;11.43;86.62;95502.31;5093349;28;1044;-58
2023/05/05 01:56:34;;;;;;;;;;;;;;;11.39;87.11;95509.81;5093193;28;1021;-58
2023/05/05 01:59:01;;;;;;;;;;;;;;;11.50;85.85;95501.50;5093162;28;1036;-58
2023/05/05 02:01:28;;;;;;;;;;;;;;;11.58;86.07;95503.41;5093297;28;1041;-58
2023/05/05 02:03:57;;;;;;;;;;;;;;;11.48;85.60;95492.81;5093327;28;1052;-58
2023/05/05 02:06:25;;;;;;;;;;;;;;;11.53;86.21;95498.53;5093164;28;1004;-58
2023/05/05 02:08:53;;;;;;;;;;;;;;;11.73;83.72;95498.28;5093106;28;1034;-58
2023/05/05 02:11:20;;;;;;;;;;;;;;;11.57;85.05;95496.34;5093021;28;989;-58
2023/05/05 02:13:48;;;;;;;;;;;;;;;11.46;87.63;95491.28;5097084;28;1905;-58
2023/05/05 02:16:15;;;;;;;;;;;;;;;11.37;89.66;95501.09;5096960;28;1024;-58
2023/05/05 02:18:41;;;;;;;;;;;;;;;11.14;89.29;95501.59;5097047;28;1143;-58
2023/05/05 02:21:08;;;;;;;;;;;;;;;11.23;90.16;95493.63;5095759;28;973;-57
2023/05/05 02:23:35;;;;;;;;;;;;;;;11.24;90.81;95495.31;5096660;28;1124;-58
2023/05/05 02:26:03;;;;;;;;;;;;;;;11.29;89.51;95493.03;5095308;28;1246;-58
2023/05/05 02:28:41;;;;;;;;;;;;;;;11.40;88.49;95490.09;5096871;28;1041;-58
2023/05/05 02:31:08;;;;;;;;;;;;;;;11.53;87.46;95497.66;5096723;28;1212;-58
2023/05/05 02:33:35;;;;;;;;;;;;;;;11.57;87.87;95495.53;5096439;28;1984;-58
2023/05/05 02:36:07;;;;;;;;;;;;;;;11.66;86.97;95499.94;5096504;28;1077;-58
2023/05/05 02:38:36;;;;;;;;;;;;;;;11.44;88.74;95501.28;5096376;28;1044;-58
2023/05/05 02:41:02;;;;;;;;;;;;;;;11.37;88.93;95500.25;5096697;28;969;-58
2023/05/05 02:43:30;;;;;;;;;;;;;;;11.31;89.36;95497.22;5096299;28;1037;-58
2023/05/05 02:45:56;;;;;;;;;;;;;;;11.28;91.39;95502.88;5096433;28;1092;-57
2023/05/05 02:48:22;;;;;;;;;;;;;;;11.28;91.41;95502.88;5096256;28;1016;-58
2023/05/05 02:50:48;;;;;;;;;;;;;;;11.28;91.39;95507.38;5096246;28;1053;-58
2023/05/05 02:53:14;;;;;;;;;;;;;;;11.28;91.75;95496.69;5096027;28;1910;-58
2023/05/05 02:55:44;;;;;;;;;;;;;;;11.35;90.99;95500.41;5096371;28;993;-57
2023/05/05 02:58:15;;;;;;;;;;;;;;;11.36;92.24;95502.09;5096288;28;1040;-57
2023/05/05 03:00:45;;;;;;;;;;;;;;;11.11;93.53;95501.91;5096195;28;1045;-57
2023/05/05 03:03:31;;;;;;;;;;;;;;;11.12;94.52;95497.41;5096071;28;1037;-58
2023/05/05 03:06:12;;;;;;;;;;;;;;;11.31;92.35;95499.88;5095836;28;1134;-57
2023/05/05 03:08:47;;;;;;;;;;;;;;;11.38;91.87;95492.06;5096135;28;1031;-57
2023/05/05 03:11:34;;;;;;;;;;;;;;;11.34;92.13;95496.03;5095926;28;992;-57
2023/05/05 03:14:11;;;;;;;;;;;;;;;11.06;93.64;95495.34;5095691;28;1909;-57
2023/05/05 03:16:39;;;;;;;;;;;;;;;10.94;92.69;95500.09;5095985;28;949;-57
2023/05/05 03:19:06;;;;;;;;;;;;;;;10.92;93.15;95504.78;5095855;28;969;-57
2023/05/05 03:21:32;;;;;;;;;;;;;;;10.93;92.31;95501.94;5095714;28;1031;-57
2023/05/05 03:23:58;;;;;;;;;;;;;;;10.81;92.97;95505.84;5095064;28;960;-57
2023/05/05 03:26:24;;;;;;;;;;;;;;;10.97;92.74;95504.31;5095273;28;1219;-57
2023/05/05 03:28:50;;;;;;;;;;;;;;;11.05;93.23;95513.25;5095538;28;1047;-57
2023/05/05 03:31:17;;;;;;;;;;;;;;;10.95;93.64;95501.81;5095555;28;1145;-56
2023/05/05 03:33:43;;;;;;;;;;;;;;;10.99;94.17;95511.19;5095514;28;2363;-56
2023/05/05 03:36:09;;;;;;;;;;;;;;;11.10;93.59;95507.44;5095505;28;966;-56
2023/05/05 03:38:35;;;;;;;;;;;;;;;11.01;94.22;95516.41;5095296;28;1557;-56
2023/05/05 03:41:04;;;;;;;;;;;;;;;10.87;94.08;95517.75;5095297;28;1029;-56
2023/05/05 03:43:30;;;;;;;;;;;;;;;10.87;92.92;95517.75;5095051;28;958;-56
2023/05/05 03:45:56;;;;;;;;;;;;;;;10.86;93.86;95511.56;5095146;28;1125;-56
2023/05/05 03:48:22;;;;;;;;;;;;;;;10.67;95.53;95514.41;5095182;28;1081;-56
2023/05/05 03:50:48;;;;;;;;;;;;;;;10.60;95.75;95518.69;5094968;28;1101;-56
2023/05/05 03:53:14;;;;;;;;;;;;;;;10.65;92.91;95514.56;5094944;28;2001;-56
2023/05/05 03:55:40;;;;;;;;;;;;;;;10.84;92.37;95518.09;5094953;28;1054;-56
2023/05/05 03:58:06;;;;;;;;;;;;;;;10.94;92.42;95516.16;5095218;28;1055;-56
2023/05/05 04:00:32;;;;;;;;;;;;;;;10.96;92.52;95518.69;5094781;28;930;-58
2023/05/05 04:02:58;;;;;;;;;;;;;;;11.03;93.31;95511.72;5095015;28;1024;-57
2023/05/05 04:05:25;;;;;;;;;;;;;;;11.11;92.82;95517.13;5094858;28;1029;-57
2023/05/05 04:07:51;;;;;;;;;;;;;;;11.23;93.28;95515.03;5094842;28;985;-57
2023/05/05 04:10:17;;;;;;;;;;;;;;;11.41;92.16;95520.38;5094699;28;940;-57
2023/05/05 04:12:43;;;;;;;;;;;;;;;11.52;91.79;95518.25;5094544;28;1906;-57
2023/05/05 04:15:09;;;;;;;;;;;;;;;11.59;92.59;95514.94;5094826;28;1052;-56
2023/05/05 04:17:35;;;;;;;;;;;;;;;11.49;93.69;95512.38;5094438;28;1551;-57
2023/05/05 04:20:01;;;;;;;;;;;;;;;11.44;92.99;95512.88;5093464;28;1022;-57
2023/05/05 04:22:27;;;;;;;;;;;;;;;11.51;91.94;95526.44;5094493;28;1014;-57
2023/05/05 04:24:53;;;;;;;;;;;;;;;11.74;92.07;95526.75;5093196;28;1036;-57
2023/05/05 04:27:19;;;;;;;;;;;;;;;12.28;88.90;95532.72;5094154;28;1456;-58
2023/05/05 04:29:45;;;;;;;;;;;;;;;12.76;85.80;95518.75;5094320;28;1085;-58
2023/05/05 04:32:11;;;;;;;;;;;;;;;13.11;84.07;95528.38;5094263;28;1914;-56
2023/05/05 04:34:37;;;;;;;;;;;;;;;13.14;83.60;95530.69;5094004;28;1029;-58
2023/05/05 04:37:03;;;;;;;;;;;;;;;13.33;82.74;95529.53;5093537;28;1058;-58
2023/05/05 04:39:30;;;;;;;;;;;;;;;13.41;81.63;95532.25;5094076;28;833;-59
2023/05/05 04:41:56;;;;;;;;;;;;;;;13.48;81.84;95535.91;5093884;28;1365;-58
2023/05/05 04:44:22;;;;;;;;;;;;;;;13.59;81.73;95532.03;5094008;28;1060;-57
2023/05/05 04:46:48;;;;;;;;;;;;;;;13.77;82.28;95536.38;5093078;28;1012;-57
2023/05/05 04:49:14;;;;;;;;;;;;;;;14.04;80.26;95540.50;5093859;28;1057;-57
2023/05/05 04:51:41;;;;;;;;;;;;;;;14.14;80.19;95535.75;5094089;28;1020;-58
2023/05/05 04:54:07;;;;;;;;;;;;;;;14.28;79.34;95539.56;5092591;28;1914;-58
2023/05/05 04:56:33;;;;;;;;;;;;;;;14.35;75.79;95537.84;5092591;28;1128;-58
2023/05/05 04:58:59;;;;;;;;;;;;;;;14.24;77.01;95535.56;5094077;28;1241;-58
2023/05/05 05:01:25;;;;;;;;;;;;;;;14.42;75.97;95540.69;5093695;28;1053;-58
2023/05/05 05:03:51;;;;;;;;;;;;;;;14.56;76.44;95542.63;5093919;28;1020;-58
2023/05/05 05:06:17;;;;;;;;;;;;;;;14.83;74.24;95543.19;5093751;28;961;-58
2023/05/05 05:08:44;;;;;;;;;;;;;;;14.78;73.93;95545.59;5093735;28;1049;-59
2023/05/05 05:11:10;;;;;;;;;;;;;;;14.76;74.41;95544.91;5093707;28;958;-58
2023/05/05 05:13:36;;;;;;;;;;;;;;;14.81;73.41;95555.97;5093752;28;1989;-58
2023/05/05 05:16:02;;;;;;;;;;;;;;;14.90;74.78;95548.72;5093834;28;1036;-59
2023/05/05 05:18:27;;;;;;;;;;;;;;;15.08;72.41;95548.41;5092488;28;1099;-60
2023/05/05 05:20:53;;;;;;;;;;;;;;;15.18;70.56;95543.63;5093629;28;957;-57
2023/05/05 05:23:19;;;;;;;;;;;;;;;15.26;72.31;95546.25;5093449;28;1066;-59
2023/05/05 05:25:45;;;;;;;;;;;;;;;15.36;73.25;95548.69;5093180;28;1109;-59
2023/05/05 05:28:11;;;;;;;;;;;;;;;15.40;71.17;95548.16;5093653;28;1137;-59
2023/05/05 05:30:37;;;;;;;;;;;;;;;15.35;71.03;95553.25;5093427;28;1184;-59
2023/05/05 05:33:04;;;;;;;;;;;;;;;15.32;72.62;95552.78;5093368;28;2006;-59
2023/05/05 05:35:30;;;;;;;;;;;;;;;15.60;71.37;95558.44;5092270;28;1048;-59
2023/05/05 05:37:56;;;;;;;;;;;;;;;15.87;69.91;95564.28;5093404;28;1016;-60
2023/05/05 05:40:22;;;;;;;;;;;;;;;16.19;69.10;95563.91;5093212;28;1052;-60
2023/05/05 05:42:48;;;;;;;;;;;;;;;16.33;67.62;95569.50;5092423;28;1052;-59
2023/05/05 05:45:14;;;;;;;;;;;;;;;16.57;67.13;95566.50;5093428;28;1054;-57
2023/05/05 05:47:40;;;;;;;;;;;;;;;16.55;67.93;95563.16;5095764;28;1047;-59
2023/05/05 05:50:06;;;;;;;;;;;;;;;16.59;66.99;95567.16;5097462;28;1055;-59
2023/05/05 05:52:34;;;;;;;;;;;;;;;16.34;68.92;95565.78;5097304;28;1905;-59
2023/05/05 05:55:01;;;;;;;;;;;;;;;15.89;68.97;95573.84;5097322;28;1028;-59
2023/05/05 05:57:27;;;;;;;;;;;;;;;15.80;69.92;95573.09;5097490;28;1051;-59
2023/05/05 05:59:53;;;;;;;;;;;;;;;15.65;70.21;95571.34;5097234;28;1061;-59
2023/05/05 06:02:19;;;;;;;;;;;;;;;15.31;69.37;95568.13;5097077;28;1266;-59
2023/05/05 06:04:46;;;;;;;;;;;;;;;15.25;70.04;95570.66;5097265;28;1039;-60
2023/05/05 06:07:12;;;;;;;;;;;;;;;14.95;71.30;95578.59;5097022;28;1054;-59
2023/05/05 06:09:38;;;;;;;;;;;;;;;15.07;71.36;95581.75;5097010;28;958;-59
2023/05/05 06:12:04;;;;;;;;;;;;;;;15.53;71.84;95576.34;5097094;28;1985;-59
2023/05/05 06:14:30;;;;;;;;;;;;;;;16.30;68.51;95580.69;5095860;28;981;-59
2023/05/05 06:16:56;;;;;;;;;;;;;;;16.54;64.64;95568.75;5096912;28;1104;-57
2023/05/05 06:19:22;;;;;;;;;;;;;;;16.83;62.47;95583.25;5096912;28;1017;-61
2023/05/05 06:21:48;;;;;;;;;;;;;;;17.17;59.97;95578.03;5096816;28;1039;-56
2023/05/05 06:24:14;;;;;;;;;;;;;;;17.64;60.23;95580.34;5096674;28;1016;-58
2023/05/05 06:26:40;;;;;;;;;;;;;;;17.99;59.17;95572.34;5096546;28;1258;-59
2023/05/05 06:29:06;;;;;;;;;;;;;;;18.18;57.13;95581.66;5096823;28;1044;-58
2023/05/05 06:31:32;;;;;;;;;;;;;;;18.34;57.33;95578.59;5096688;28;1181;-59
2023/05/05 06:33:58;;;;;;;;;;;;;;;17.92;56.83;95575.00;5095424;28;2001;-59
2023/05/05 06:36:25;;;;;;;;;;;;;;;18.13;56.75;95571.41;5096497;28;1040;-59
2023/05/05 06:38:51;;;;;;;;;;;;;;;18.30;55.47;95577.34;5096487;28;1120;-59
2023/05/05 06:41:17;;;;;;;;;;;;;;;18.51;56.20;95573.72;5095174;28;1050;-59
2023/05/05 06:43:43;;;;;;;;;;;;;;;18.51;56.94;95579.13;5095434;28;1002;-59
2023/05/05 06:46:10;;;;;;;;;;;;;;;18.52;53.20;95586.22;5095365;28;1127;-59
2023/05/05 06:48:36;;;;;;;;;;;;;;;18.54;54.18;95576.84;5096386;28;962;-60
2023/05/05 06:51:02;;;;;;;;;;;;;;;19.16;51.70;95571.53;5096351;28;1017;-60
2023/05/05 06:53:28;;;;;;;;;;;;;;;19.25;53.26;95570.25;5096055;28;1906;-60
2023/05/05 06:55:54;;;;;;;;;;;;;;;19.14;52.60;95572.75;5096423;28;1054;-60
2023/05/05 06:58:20;;;;;;;;;;;;;;;19.56;51.03;95571.59;5094971;28;1065;-60
2023/05/05 07:00:46;;;;;;;;;;;;;;;19.68;51.24;95572.63;5096180;28;953;-60
2023/05/05 07:03:13;;;;;;;;;;;;;;;19.07;50.92;95570.03;5096116;28;1275;-60
2023/05/05 07:05:39;;;;;;;;;;;;;;;19.12;50.83;95575.66;5096056;28;973;-60
2023/05/05 07:08:05;;;;;;;;;;;;;;;19.24;52.40;95578.63;5095821;28;1093;-60
2023/05/05 07:10:31;;;;;;;;;;;;;;;19.66;51.45;95571.19;5095776;28;1022;-60
2023/05/05 07:12:57;;;;;;;;;;;;;;;20.00;50.38;95566.63;5095965;28;1909;-60
2023/05/05 07:15:23;;;;;;;;;;;;;;;20.25;49.55;95572.22;5094717;28;977;-60
2023/05/05 07:17:50;;;;;;;;;;;;;;;20.25;51.80;95570.34;5094695;28;993;-60
2023/05/05 07:20:16;;;;;;;;;;;;;;;18.85;50.78;95572.84;5095746;28;969;-60
2023/05/05 07:22:42;;;;;;;;;;;;;;;19.44;53.19;95565.91;5095631;28;1100;-60
2023/05/05 07:25:08;;;;;;;;;;;;;;;19.93;52.45;95565.78;5095583;28;953;-60
2023/05/05 07:27:34;;;;;;;;;;;;;;;20.04;49.76;95574.13;5095401;28;1077;-60
2023/05/05 07:30:00;;;;;;;;;;;;;;;19.16;53.07;95576.09;5094333;28;1050;-60
2023/05/05 07:32:26;;;;;;;;;;;;;;;18.72;53.26;95580.88;5095230;28;1989;-60
2023/05/05 07:34:52;;;;;;;;;;;;;;;18.92;56.07;95571.00;5095409;28;1062;-60
2023/05/05 07:37:19;;;;;;;;;;;;;;;19.41;53.78;95566.34;5095281;28;1064;-60
2023/05/05 07:39:47;;;;;;;;;;;;;;;19.53;52.27;95572.00;5095324;28;1024;-60
2023/05/05 07:42:13;;;;;;;;;;;;;;;19.14;53.61;95568.16;5095436;28;1146;-60
2023/05/05 07:44:39;;;;;;;;;;;;;;;19.41;54.75;95569.06;5095199;28;1105;-60
2023/05/05 07:47:05;;;;;;;;;;;;;;;19.90;53.28;95569.75;5095309;28;1128;-60
2023/05/05 07:49:31;;;;;;;;;;;;;;;20.59;48.95;95581.97;5093934;28;1064;-60
2023/05/05 07:51:57;;;;;;;;;;;;;;;20.91;49.92;95571.22;5095057;28;1901;-61
2023/05/05 07:54:23;;;;;;;;;;;;;;;21.11;47.18;95579.28;5094960;28;1036;-61
2023/05/05 07:56:50;;;;;;;;;;;;;;;20.32;50.04;95572.19;5094940;28;1089;-61
2023/05/05 07:59:16;;;;;;;;;;;;;;;20.46;50.12;95566.53;5095060;28;1005;-61
2023/05/05 08:01:42;;;;;;;;;;;;;;;19.80;52.07;95562.00;5094860;28;1125;-60
2023/05/05 08:04:08;;;;;;;;;;;;;;;20.41;50.64;95566.34;5093695;28;1030;-60
2023/05/05 08:06:34;;;;;;;;;;;;;;;21.04;50.80;95567.63;5094810;28;1116;-60
2023/05/05 08:09:01;;;;;;;;;;;;;;;21.37;48.26;95562.00;5094722;28;1049;-60
2023/05/05 08:11:27;;;;;;;;;;;;;;;21.68;49.17;95562.25;5094681;28;1074;-60
2023/05/05 08:13:53;;;;;;;;;;;;;;;20.82;51.07;95550.78;5093372;28;2011;-60
2023/05/05 08:16:19;;;;;;;;;;;;;;;20.51;50.58;95556.91;5093418;28;1044;-60
2023/05/05 08:18:45;;;;;;;;;;;;;;;20.16;51.15;95547.16;5094631;28;967;-59
2023/05/05 08:21:11;;;;;;;;;;;;;;;19.56;53.17;95538.19;5094470;28;1042;-59
2023/05/05 08:23:37;;;;;;;;;;;;;;;20.32;50.31;95547.75;5094446;28;988;-59
2023/05/05 08:30:02;;;;;;;;;;;;;;;20.62;50.58;95537.25;5087978;28;1181;-58
2023/05/05 08:32:30;;;;;;;;;;;;;;;21.36;49.38;95533.16;5094148;28;1986;-60
2023/05/05 08:34:56;;;;;;;;;;;;;;;21.56;48.80;95543.91;5094414;28;1021;-57
2023/05/05 08:37:22;;;;;;;;;;;;;;;21.38;46.43;95538.34;5094275;28;1012;-57
2023/05/05 08:39:48;;;;;;;;;;;;;;;21.11;47.89;95524.91;5094267;28;1045;-59
2023/05/05 08:42:14;;;;;;;;;;;;;;;21.30;47.20;95533.19;5094039;28;1108;-57
2023/05/05 08:44:40;;;;;;;;;;;;;;;21.34;47.23;95526.25;5094348;28;988;-57
2023/05/05 08:47:09;;;;;;;;;;;;;;;21.54;46.72;95532.41;5094218;28;1036;-57
2023/05/05 08:49:39;;;;;;;;;;;;;;;21.64;47.79;95519.16;5094175;28;1032;-57
2023/05/05 08:52:07;;;;;;;;;;;;;;;22.10;47.84;95530.72;5094131;28;2017;-56
2023/05/05 08:54:36;;;;;;;;;;;;;;;21.91;46.22;95523.53;5093977;28;1027;-57
2023/05/05 08:57:04;;;;;;;;;;;;;;;21.99;47.34;95507.75;5093847;28;977;-57
2023/05/05 08:59:31;;;;;;;;;;;;;;;22.07;47.36;95522.97;5093832;28;1125;-57
2023/05/05 09:01:58;;;;;;;;;;;;;;;21.73;46.94;95516.16;5094045;28;966;-57
2023/05/05 09:04:24;;;;;;;;;;;;;;;21.07;47.51;95507.38;5093905;28;977;-57
2023/05/05 09:06:50;;;;;;;;;;;;;;;21.16;47.68;95508.78;5093729;28;1184;-57
2023/05/05 09:09:16;;;;;;;;;;;;;;;21.52;47.12;95499.16;5093750;28;997;-57
2023/05/05 09:11:43;;;;;;;;;;;;;;;21.69;46.12;95507.59;5092732;28;1030;-57
2023/05/05 09:14:10;;;;;;;;;;;;;;;20.65;46.73;95506.97;5093774;28;1976;-56
2023/05/05 09:16:39;;;;;;;;;;;;;;;21.06;47.59;95495.69;5093736;28;1036;-57
2023/05/05 09:19:05;;;;;;;;;;;;;;;20.70;50.08;95496.28;5093451;28;1045;-57
2023/05/05 09:21:31;;;;;;;;;;;;;;;20.51;49.73;95491.72;5093014;28;966;-57
2023/05/05 09:24:10;;;;;;;;;;;;;;;20.22;49.49;95507.47;5092319;28;1132;-57
2023/05/05 09:26:38;;;;;;;;;;;;;;;20.08;50.15;95506.69;5093476;28;1568;-57
2023/05/05 09:29:04;;;;;;;;;;;;;;;20.14;50.51;95491.44;5093340;28;1056;-57
2023/05/05 09:31:31;;;;;;;;;;;;;;;20.03;48.56;95491.06;5092308;28;1265;-57
2023/05/05 09:33:59;;;;;;;;;;;;;;;19.92;49.86;95488.97;5093311;28;1995;-56
2023/05/05 09:36:41;;;;;;;;;;;;;;;20.73;48.11;95489.56;5093280;28;1096;-56
2023/05/05 09:39:08;;;;;;;;;;;;;;;21.65;47.12;95490.06;5092248;28;1034;-57
2023/05/05 09:41:38;;;;;;;;;;;;;;;21.56;46.42;95497.66;5093505;28;1044;-56
2023/05/05 09:44:04;;;;;;;;;;;;;;;21.25;48.45;95488.44;5093467;28;1012;-57
2023/05/05 09:46:30;;;;;;;;;;;;;;;21.55;47.15;95487.84;5092210;28;989;-55
2023/05/05 09:49:10;;;;;;;;;;;;;;;21.87;47.76;95476.88;5093242;28;1053;-56
2023/05/05 09:51:35;;;;;;;;;;;;;;;21.32;48.80;95469.34;5093555;28;1055;-56
2023/05/05 09:54:02;;;;;;;;;;;;;;;21.48;48.02;95468.03;5093396;28;1905;-56
2023/05/05 09:56:39;;;;;;;;;;;;;;;22.14;46.15;95463.84;5093110;28;1085;-56
2023/05/05 09:59:06;;;;;;;;;;;;;;;22.35;43.96;95481.66;5093274;28;1035;-56
2023/05/05 10:01:32;;;;;;;;;;;;;;;21.58;44.42;95465.63;5092997;28;1052;-55
2023/05/05 10:03:58;;;;;;;;;;;;;;;21.66;46.54;95455.50;5093140;28;1886;-55
2023/05/05 10:06:38;;;;;;;;;;;;;;;22.12;46.02;95467.81;5093274;28;1052;-55
2023/05/05 10:09:04;;;;;;;;;;;;;;;21.99;45.64;95466.94;5093171;28;1087;-55
2023/05/05 10:11:30;;;;;;;;;;;;;;;21.67;47.95;95454.47;5093004;28;1124;-56
2023/05/05 10:13:57;;;;;;;;;;;;;;;21.68;46.80;95458.84;5093114;28;1984;-56
2023/05/05 10:16:23;;;;;;;;;;;;;;;21.85;45.56;95451.75;5092894;28;1041;-56
2023/05/05 10:18:50;;;;;;;;;;;;;;;21.42;46.55;95455.28;5093028;28;1052;-56
2023/05/05 10:21:19;;;;;;;;;;;;;;;21.54;46.04;95458.13;5093130;28;1413;-56
2023/05/05 10:23:51;;;;;;;;;;;;;;;21.24;45.23;95448.69;5092977;28;1112;-56
2023/05/05 10:26:18;;;;;;;;;;;;;;;20.88;47.82;95424.91;5092903;28;1029;-54
2023/05/05 10:28:49;;;;;;;;;;;;;;;21.07;47.35;95436.69;5092742;28;1247;-55
2023/05/05 10:31:34;;;;;;;;;;;;;;;21.16;45.38;95438.09;5093011;28;1189;-56
2023/05/05 10:34:07;;;;;;;;;;;;;;;21.28;45.90;95430.06;5095340;28;1906;-55
2023/05/05 10:36:35;;;;;;;;;;;;;;;20.71;48.27;95423.75;5096694;28;1063;-55
2023/05/05 10:39:01;;;;;;;;;;;;;;;20.99;49.02;95424.19;5096579;28;1120;-56
2023/05/05 10:41:29;;;;;;;;;;;;;;;21.21;46.60;95432.84;5096325;28;1093;-56
2023/05/05 10:43:56;;;;;;;;;;;;;;;20.99;46.02;95424.19;5096418;28;1088;-56
2023/05/05 10:46:23;;;;;;;;;;;;;;;20.88;46.73;95422.19;5096327;28;1112;-55
2023/05/05 10:49:05;;;;;;;;;;;;;;;20.64;45.67;95426.50;5096471;28;1036;-56
2023/05/05 10:51:50;;;;;;;;;;;;;;;20.29;47.07;95418.69;5096338;28;1324;-56
2023/05/05 10:54:16;;;;;;;;;;;;;;;20.40;48.47;95420.75;5096014;28;1988;-56
2023/05/05 10:56:42;;;;;;;;;;;;;;;20.57;48.49;95412.13;5096395;28;1008;-58
2023/05/05 10:59:26;;;;;;;;;;;;;;;21.02;46.85;95414.78;5096326;28;1008;-58
2023/05/05 11:01:53;;;;;;;;;;;;;;;21.52;47.10;95414.81;5096185;28;973;-57
2023/05/05 11:04:19;;;;;;;;;;;;;;;21.59;46.31;95414.78;5094767;28;1017;-56
2023/05/05 11:07:04;;;;;;;;;;;;;;;21.27;46.09;95420.25;5096245;28;977;-57
2023/05/05 11:09:30;;;;;;;;;;;;;;;21.72;46.29;95414.66;5095833;28;1066;-56
2023/05/05 11:12:04;;;;;;;;;;;;;;;21.83;45.33;95419.34;5096076;28;969;-56
2023/05/05 11:14:30;;;;;;;;;;;;;;;21.54;46.79;95409.16;5095812;28;977;-56
2023/05/05 11:16:56;;;;;;;;;;;;;;;21.21;44.89;95404.81;5095748;28;1016;-56
2023/05/05 11:19:41;;;;;;;;;;;;;;;20.82;47.61;95404.88;5094663;28;973;-56
2023/05/05 11:22:07;;;;;;;;;;;;;;;20.65;47.07;95396.41;5095849;28;1029;-56
2023/05/05 11:24:35;;;;;;;;;;;;;;;20.81;47.23;95394.22;5095591;28;1124;-57
2023/05/05 11:27:02;;;;;;;;;;;;;;;21.21;48.33;95383.06;5095666;28;1122;-56
2023/05/05 11:29:46;;;;;;;;;;;;;;;21.28;47.54;95380.28;5095340;28;1080;-57
2023/05/05 11:32:13;;;;;;;;;;;;;;;21.34;46.54;95393.84;5094133;28;1992;-57
2023/05/05 11:34:47;;;;;;;;;;;;;;;21.45;46.65;95384.13;5095624;28;968;-56
2023/05/05 11:37:14;;;;;;;;;;;;;;;21.59;47.80;95387.56;5095450;28;981;-56
2023/05/05 11:39:47;;;;;;;;;;;;;;;21.57;46.55;95385.06;5095446;28;1028;-57
2023/05/05 11:42:13;;;;;;;;;;;;;;;21.60;46.05;95390.03;5094037;28;981;-57
2023/05/05 11:44:40;;;;;;;;;;;;;;;21.78;44.48;95393.88;5094745;28;1116;-56
2023/05/05 11:47:06;;;;;;;;;;;;;;;21.96;45.23;95379.44;5095201;28;1061;-57
2023/05/05 11:49:35;;;;;;;;;;;;;;;21.45;44.62;95378.69;5095100;28;1113;-57
2023/05/05 11:52:02;;;;;;;;;;;;;;;21.54;46.01;95371.91;5095073;28;1045;-56
2023/05/05 11:54:28;;;;;;;;;;;;;;;21.82;45.79;95363.25;5095014;28;870;-57
2023/05/05 11:56:58;;;;;;;;;;;;;;;21.52;44.36;95371.31;5095017;28;1049;-57
2023/05/05 11:59:24;;;;;;;;;;;;;;;21.32;45.24;95365.19;5095167;28;980;-56
2023/05/05 12:01:51;;;;;;;;;;;;;;;21.36;44.97;95369.09;5094935;28;1049;-56
2023/05/05 12:04:17;;;;;;;;;;;;;;;21.38;46.58;95362.41;5094806;28;1107;-57
2023/05/05 12:06:47;;;;;;;;;;;;;;;21.34;45.63;95363.06;5094918;28;1005;-56
2023/05/05 12:09:21;;;;;;;;;;;;;;;21.25;46.13;95351.66;5094765;28;1021;-57
2023/05/05 12:11:47;;;;;;;;;;;;;;;21.62;46.03;95352.56;5094794;28;1053;-56
2023/05/05 12:14:13;;;;;;;;;;;;;;;21.67;46.00;95345.63;5094450;28;1902;-57
2023/05/05 12:16:39;;;;;;;;;;;;;;;21.82;44.57;95343.38;5094748;28;1054;-56
2023/05/05 12:19:06;;;;;;;;;;;;;;;22.19;45.15;95335.16;5094614;28;965;-56
2023/05/05 12:21:33;;;;;;;;;;;;;;;22.10;43.39;95342.84;5094439;28;1108;-56
2023/05/05 12:24:00;;;;;;;;;;;;;;;21.88;44.26;95341.63;5094450;28;1087;-56
2023/05/05 12:26:27;;;;;;;;;;;;;;;21.86;43.06;95338.31;5094405;28;1050;-56
2023/05/05 12:28:54;;;;;;;;;;;;;;;21.63;43.17;95340.63;5094283;28;1227;-56
2023/05/05 12:31:20;;;;;;;;;;;;;;;21.65;42.96;95334.97;5094457;28;1262;-56
2023/05/05 12:33:47;;;;;;;;;;;;;;;21.64;43.24;95322.41;5094321;28;2060;-56
2023/05/05 12:36:14;;;;;;;;;;;;;;;21.79;44.29;95324.75;5093073;28;957;-56
2023/05/05 12:38:40;;;;;;;;;;;;;;;21.78;42.85;95318.50;5094211;28;1053;-56
2023/05/05 12:41:07;;;;;;;;;;;;;;;21.86;44.68;95313.81;5094434;28;1028;-57
2023/05/05 12:43:33;;;;;;;;;;;;;;;21.63;44.61;95315.31;5094226;28;985;-56
2023/05/05 12:46:04;;;;;;;;;;;;;;;21.32;45.20;95313.50;5094272;28;1048;-56
2023/05/05 12:48:31;;;;;;;;;;;;;;;20.97;44.99;95306.72;5093998;28;1260;-56
2023/05/05 12:51:15;;;;;;;;;;;;;;;20.97;45.47;95305.91;5094022;28;1031;-56
2023/05/05 12:53:42;;;;;;;;;;;;;;;20.95;44.15;95305.28;5094115;28;1902;-56
2023/05/05 12:56:26;;;;;;;;;;;;;;;20.96;43.97;95302.34;5093380;28;2126;-56
2023/05/05 12:58:54;;;;;;;;;;;;;;;21.08;44.04;95302.44;5094016;28;1052;-56
2023/05/05 13:01:20;;;;;;;;;;;;;;;21.37;46.08;95297.34;5093858;28;973;-56
2023/05/05 13:03:59;;;;;;;;;;;;;;;21.51;43.62;95301.63;5093837;28;1041;-56
2023/05/05 13:06:27;;;;;;;;;;;;;;;21.55;42.96;95297.41;5093817;28;1105;-56